Terminal Aerodrome Forecast
Issued by NWS Louisville, KY

Home | Current Version | Previous Version | Text Only | Print | Product List | Glossary On
Versions: 1 2 3 4 5 6 7 8 9 10 11 12 13 14 15 16
000
FTUS43 KLMK 171720
TAFSDF
TAF
KSDF 171720Z 1718/1824 26011G20KT P6SM SKC
     FM180000 VRB04KT P6SM FEW250
     FM180400 10006KT P6SM BKN060
     FM181500 21014G24KT P6SM BKN070=

USA.gov is the U.S. government's official web portal to all federal, state and local government web resources and services.